Flight Track Log - Related Links

Times and Time Zones

All times are in EDT time to prevent confusion due to time zone crossing. See the OPT732 flight status page for this flight to view local times or setup timezone preferences in your user account.

Time Position Orientation Groundspeed Altitude Reporting Facility
EDT Latitude Longitude Course Direction KTS MPH feet Rate Location/Type
Sat 08:38:35 PM 27.9333 -82.7000 North 177 204 1,000  Level Tampa TRACON
Sat 08:39:29 PM 27.9833 -82.7000 360° North 223 257 3,900 3,526 Climbing Tampa TRACON
Sat 08:40:29 PM 28.0500 -82.7167 348° North 265 305 7,700 2,769 Climbing Tampa TRACON
Sat 08:42:31 PM 28.2122 -82.6758 13° North 311 358 12,300 2,308 Climbing Jacksonville Center
Sat 08:43:31 PM 28.3022 -82.6803 358° North 316 364 14,700 2,300 Climbing Jacksonville Center
Sat 08:44:00 PM 28.6526 -82.6401 North  Level FlightAware Approximate
Sat 08:44:31 PM 28.3981 -82.6825 359° North 322 371 16,900  Level Jacksonville Center
Sat 08:45:31 PM 28.4961 -82.6894 356° North 335 386 18,900 2,150 Climbing Jacksonville Center
Sat 08:46:31 PM 28.5983 -82.6964 357° North 355 409 21,200 2,050 Climbing Jacksonville Center
Sat 08:47:31 PM 28.7008 -82.7008 358° North 362 417 23,000 1,950 Climbing Jacksonville Center
Sat 08:48:31 PM 28.8114 -82.7100 356° North 374 430 25,100 1,900 Climbing Jacksonville Center
Sat 08:49:31 PM 28.9242 -82.7169 357° North 393 452 26,800 1,800 Climbing Jacksonville Center
Sat 08:50:31 PM 29.0408 -82.7264 356° North 406 467 28,700 1,850 Climbing Jacksonville Center
Sat 08:51:31 PM 29.1619 -82.7381 355° North 420 483 30,500 1,700 Climbing Jacksonville Center
Sat 08:52:31 PM 29.2872 -82.7450 357° North 431 496 32,100 1,550 Climbing Jacksonville Center
Sat 08:53:31 PM 29.4167 -82.7592 355° North 451 519 33,600 1,350 Climbing Jacksonville Center
Sat 08:54:31 PM 29.5650 -82.8019 346° North 477 549 34,800 1,150 Climbing Jacksonville Center
Sat 08:55:31 PM 29.6967 -82.8328 349° North 483 556 35,900 1,300 Climbing Jacksonville Center
Sat 08:56:31 PM 29.8281 -82.8639 348° North 489 563 37,400 1,550 Climbing Jacksonville Center
Sat 08:57:31 PM 29.9597 -82.8925 349° North 484 557 39,000 1,650 Climbing Jacksonville Center
Sat 08:58:31 PM 30.0933 -82.8925 360° North 478 550 40,700 1,500 Climbing Jacksonville Center
Sat 08:59:31 PM 30.2164 -82.8181 28° Northeast 468 539 42,000 1,150 Climbing Jacksonville Center
Sat 09:00:31 PM 30.3353 -82.7361 31° Northeast 476 548 43,000 650 Climbing Jacksonville Center
Sat 09:01:31 PM 30.4564 -82.6492 32° Northeast 487 560 43,300 300 Climbing Jacksonville Center
Sat 09:02:31 PM 30.5750 -82.5692 30° Northeast 499 574 43,600 300 Climbing Jacksonville Center
Sat 09:03:31 PM 30.7003 -82.4842 30° Northeast 504 580 43,900 250 Climbing Jacksonville Center
Sat 09:04:31 PM 30.8064 -82.4089 31° Northeast 509 586 44,100 250 Climbing Jacksonville Center
Sat 09:05:31 PM 30.9292 -82.3186 32° Northeast 509 586 44,400 300 Climbing Jacksonville Center
Sat 09:06:31 PM 31.0561 -82.2281 31° Northeast 514 592 44,700 300 Climbing Jacksonville Center
Sat 09:07:31 PM 31.1808 -82.1397 31° Northeast 514 592 45,000 150 Climbing Jacksonville Center
Sat 09:08:31 PM 31.3056 -82.0561 30° Northeast 514 592 45,000  Level Jacksonville Center
Sat 09:09:31 PM 31.4450 -81.9600 30° Northeast 519 597 45,000  Level Jacksonville Center
Sat 09:10:31 PM 31.5717 -81.8758 30° Northeast 519 597 45,000  Level Jacksonville Center
Sat 09:11:31 PM 31.6878 -81.7964 30° Northeast 525 604 45,000  Level Jacksonville Center
Sat 09:12:31 PM 31.8247 -81.7017 30° Northeast 520 598 45,000  Level Jacksonville Center
Sat 09:13:31 PM 31.9514 -81.6144 30° Northeast 520 598 45,000  Level Jacksonville Center
Sat 09:14:31 PM 32.0633 -81.5394 30° Northeast 520 598 45,000  Level Jacksonville Center
Sat 09:15:31 PM 32.2042 -81.4489 29° Northeast 521 600 45,000  Level Jacksonville Center
Sat 09:16:31 PM 32.3306 -81.3558 32° Northeast 527 606 45,000  Level Jacksonville Center
Sat 09:17:31 PM 32.4444 -81.2803 29° Northeast 527 606 45,000  Level Jacksonville Center
Sat 09:18:31 PM 32.5706 -81.1892 31° Northeast 527 606 45,000  Level Jacksonville Center
Sat 09:19:31 PM 32.7111 -81.0928 30° Northeast 521 600 45,000  Level Jacksonville Center
Sat 09:20:31 PM 32.8350 -81.0061 30° Northeast 521 600 45,000  Level Jacksonville Center
Sat 09:21:31 PM 32.9589 -80.9169 31° Northeast 521 600 45,000  Level Jacksonville Center
Sat 09:22:31 PM 33.0850 -80.8322 29° Northeast 521 600 45,000  Level Jacksonville Center
Sat 09:23:31 PM 33.2086 -80.7450 31° Northeast 521 600 45,000  Level Jacksonville Center
Sat 09:24:31 PM 33.3344 -80.6575 30° Northeast 521 600 45,000  Level Jacksonville Center
Sat 09:25:31 PM 33.4603 -80.5672 31° Northeast 521 600 45,000  Level Jacksonville Center
Sat 09:26:31 PM 33.5858 -80.4742 32° Northeast 526 605 45,000  Level Jacksonville Center
Sat 09:27:31 PM 33.7114 -80.3858 30° Northeast 521 600 45,000  Level Jacksonville Center
Sat 09:28:31 PM 33.8347 -80.2972 31° Northeast 521 600 45,000  Level Jacksonville Center
Sat 09:29:31 PM 33.9622 -80.2033 31° Northeast 521 600 45,000  Level Jacksonville Center
Sat 09:30:31 PM 34.0897 -80.1142 30° Northeast 527 606 45,000  Level Jacksonville Center
Sat 09:31:31 PM 34.2128 -80.0200 32° Northeast 522 601 45,000  Level Jacksonville Center
Sat 09:33:37 PM 34.4572 -79.8436 31° Northeast 518 596 45,000  Level Washington Center
Sat 09:34:38 PM 34.5836 -79.7492 32° Northeast 523 602 45,000  Level Washington Center
Sat 09:35:38 PM 34.7058 -79.6519 33° Northeast 523 602 45,000  Level Washington Center
Sat 09:36:37 PM 34.8242 -79.5464 36° Northeast 523 602 45,000  Level Washington Center
Sat 09:37:37 PM 34.9464 -79.4461 34° Northeast 528 608 45,000  Level Washington Center
Sat 09:38:39 PM 35.0644 -79.3425 36° Northeast 528 608 45,000  Level Washington Center
Sat 09:39:38 PM 35.1867 -79.2389 35° Northeast 528 608 45,000  Level Washington Center
Sat 09:40:39 PM 35.3067 -79.1350 35° Northeast 528 608 45,000  Level Washington Center
Sat 09:41:37 PM 35.4244 -79.0331 35° Northeast 528 608 45,000  Level Washington Center
Sat 09:42:37 PM 35.5442 -78.9283 35° Northeast 523 602 45,000  Level Washington Center
Sat 09:43:39 PM 35.6639 -78.8261 35° Northeast 523 602 45,000  Level Washington Center
Sat 09:44:39 PM 35.7922 -78.7083 37° Northeast 523 602 45,000  Level Washington Center
Sat 09:45:40 PM 35.9094 -78.6028 36° Northeast 523 602 45,000  Level Washington Center
Sat 09:46:37 PM 36.0292 -78.4969 36° Northeast 523 602 45,000  Level Washington Center
Sat 09:47:37 PM 36.1442 -78.3931 36° Northeast 517 595 45,000  Level Washington Center
Sat 09:48:39 PM 36.2633 -78.2892 35° Northeast 517 595 45,000  Level Washington Center
Sat 09:49:37 PM 36.3806 -78.1822 36° Northeast 517 595 45,000  Level Washington Center
Sat 09:50:37 PM 36.4828 -78.0875 37° Northeast 508 585 45,000  Level Washington Center
Sat 09:51:37 PM 36.6017 -77.9775 37° Northeast 508 585 45,000  Level Washington Center
Sat 09:52:37 PM 36.7186 -77.8747 35° Northeast 513 590 45,000  Level Washington Center
Sat 09:53:37 PM 36.8311 -77.7664 38° Northeast 513 590 45,000  Level Washington Center
Sat 09:54:38 PM 36.9478 -77.6631 35° Northeast 508 585 45,000  Level Washington Center
Sat 09:55:37 PM 37.0642 -77.5544 37° Northeast 508 585 45,000  Level Washington Center
Sat 09:56:37 PM 37.1786 -77.4478 37° Northeast 508 585 45,000  Level Washington Center
Sat 09:57:37 PM 37.2928 -77.3436 36° Northeast 508 585 45,000  Level Washington Center
Sat 09:58:39 PM 37.4069 -77.2389 36° Northeast 508 585 45,000  Level Washington Center
Sat 09:59:37 PM 37.5253 -77.1289 36° Northeast 514 592 45,000  Level Washington Center
Sat 10:00:38 PM 37.6369 -77.0211 37° Northeast 514 592 45,000  Level Washington Center
Sat 10:01:37 PM 37.7508 -76.9128 37° Northeast 514 592 45,000  Level Washington Center
Sat 10:02:39 PM 37.8625 -76.8044 37° Northeast 509 586 45,000  Level Washington Center
Sat 10:03:37 PM 37.9742 -76.6981 37° Northeast 509 586 45,000  Level Washington Center
Sat 10:04:39 PM 38.0878 -76.5917 36° Northeast 509 586 45,000  Level Washington Center
Sat 10:05:37 PM 38.1992 -76.4847 37° Northeast 509 586 45,000  Level Washington Center
Sat 10:06:37 PM 38.3228 -76.3697 36° Northeast 514 592 45,000  Level Washington Center
Sat 10:07:38 PM 38.4361 -76.2622 37° Northeast 503 579 45,000  Level Washington Center
Sat 10:08:37 PM 38.5261 -76.1783 36° Northeast 503 579 45,000 -807 Level Washington Center
Sat 10:09:37 PM 38.6539 -76.0650 35° Northeast 497 572 43,400 -1,884 Descending Washington Center
Sat 10:10:38 PM 38.7586 -75.9617 38° Northeast 491 565 41,200 -2,182 Descending Washington Center
Sat 10:11:38 PM 38.8672 -75.8608 36° Northeast 486 559 39,000 -2,200 Descending Washington Center
Sat 10:12:38 PM 38.9758 -75.7597 36° Northeast 480 552 36,800 -2,250 Descending Washington Center
Sat 10:13:38 PM 39.0842 -75.6558 37° Northeast 480 552 34,500 -2,231 Descending Washington Center
Sat 10:14:39 PM 39.1967 -75.5486 36° Northeast 486 559 32,300 -2,975 Descending Washington Center
Sat 10:15:39 PM 39.3050 -75.4522 35° Northeast 486 559 28,500 -4,119 Descending Washington Center
Sat 10:16:37 PM 39.4028 -75.3658 34° Northeast 452 520 24,200 -4,200 Descending Washington Center
Sat 10:17:39 PM 39.4986 -75.2794 35° Northeast 434 499 20,100 -3,273 Descending Washington Center
Sat 10:18:38 PM 39.5858 -75.1983 36° Northeast 405 466 17,600 -1,563 Descending Washington Center
Sat 10:19:38 PM 39.6667 -75.1253 35° Northeast 363 418 17,000 -300 Descending Washington Center
Sat 10:20:38 PM 39.7622 -75.0408 34° Northeast 363 418 17,000 -202 Level Washington Center
Sat 10:21:37 PM 39.8453 -74.9700 33° Northeast 384 442 16,600 -1,240 Descending Washington Center
Sat 10:22:39 PM 39.9386 -74.8772 37° Northeast 389 448 14,500 -2,050 Descending Washington Center
Sat 10:23:37 PM 40.0086 -74.7761 48° Northeast 384 442 12,500 -1,808 Descending Washington Center
Sat 10:25:05 PM 40.1167 -74.6333 45° Northeast 355 409 10,100 -973 Descending New York TRACON
Sat 10:26:05 PM 40.1833 -74.5333 49° Northeast 353 406 10,100  Level New York TRACON
Sat 10:27:06 PM 40.2500 -74.4500 44° Northeast 360 414 10,100  Level New York TRACON
Sat 10:28:06 PM 40.3333 -74.3667 37° Northeast 345 397 10,100 -350 Level New York TRACON
Sat 10:29:06 PM 40.3833 -74.3000 45° Northeast 267 307 9,400 -1,000 Descending New York TRACON
Sat 10:30:06 PM 40.4333 -74.2500 37° Northeast 255 293 8,100 -1,104 Descending New York TRACON
Sat 10:31:11 PM 40.5000 -74.1833 37° Northeast 256 295 7,100 -850 Descending New York TRACON
Sat 10:32:06 PM 40.5500 -74.1333 37° Northeast 247 284 6,400 -1,304 Descending New York TRACON
Sat 10:33:06 PM 40.6167 -74.1000 21° North 241 277 4,600 -1,571 Descending New York TRACON
Sat 10:34:12 PM 40.6833 -74.0500 30° Northeast 232 267 3,100 -714 Descending New York TRACON
Sat 10:35:12 PM 40.7333 -74.0167 27° Northeast 220 253 3,100  Level New York TRACON
Sat 10:36:06 PM 40.7833 -74.0000 14° North 213 245 3,100 -263 Level New York TRACON
Sat 10:37:06 PM 40.8333 -73.9667 27° Northeast 209 241 2,600 -500 Descending New York TRACON
Sat 10:38:06 PM 40.8500 -73.9000 72° East 170 196 2,100 -500 Descending New York TRACON
Sat 10:39:06 PM 40.8333 -73.8500 114° Southeast 154 177 1,600 -750 Descending New York TRACON
Sat 10:40:06 PM 40.8000 -73.8500 180° South 135 155 600 -1,000 Descending New York TRACON

Login

Don't have an account? Register now (free) for customized features, flight alerts, and more!